createdAt,value
2019-03-02T00:03:02.878Z,14.63
2019-03-02T00:09:02.828Z,17.57
2019-03-02T00:11:52.927Z,15.30
2019-03-02T00:15:20.574Z,18.40
2019-03-02T00:18:29.307Z,13.60
2019-03-02T00:21:31.388Z,16.17
2019-03-02T00:29:28.470Z,16.47
2019-03-02T00:32:27.366Z,17.67
2019-03-02T00:35:18.261Z,17.00
2019-03-02T00:37:55.693Z,20.00
2019-03-02T00:40:55.209Z,17.70
2019-03-02T00:43:59.816Z,19.20
2019-03-02T00:46:48.103Z,16.80
2019-03-02T00:49:29.625Z,15.43
2019-03-02T00:52:09.570Z,17.17
2019-03-02T00:55:17.783Z,19.00
2019-03-02T00:57:57.458Z,17.73
2019-03-02T01:00:36.498Z,16.83
2019-03-02T01:03:31.648Z,15.60
2019-03-02T01:06:12.627Z,20.43
2019-03-02T01:09:11.692Z,17.10
2019-03-02T01:11:56.689Z,16.10
2019-03-02T01:14:46.323Z,23.80
2019-03-02T01:17:18.846Z,21.23
2019-03-02T01:19:54.757Z,22.77
2019-03-02T01:22:51.830Z,16.20
2019-03-02T01:25:32.658Z,19.10
2019-03-02T01:28:11.102Z,15.25
2019-03-02T01:31:05.233Z,14.93
2019-03-02T01:33:45.895Z,16.30
2019-03-02T01:36:21.845Z,15.30
2019-03-02T01:39:02.150Z,16.67
2019-03-02T01:41:50.997Z,15.80
2019-03-02T01:44:25.849Z,14.93
2019-03-02T01:47:01.447Z,14.87
2019-03-02T01:49:42.639Z,15.93
2019-03-02T01:52:19.519Z,17.37
2019-03-02T01:55:04.960Z,14.20
2019-03-02T01:57:39.437Z,13.43
2019-03-02T02:00:29.558Z,19.20
2019-03-02T02:03:12.101Z,18.80
2019-03-02T02:05:53.013Z,20.07
2019-03-02T02:08:30.749Z,18.10
2019-03-02T02:11:02.191Z,19.97
2019-03-02T02:13:42.813Z,15.10
2019-03-02T02:16:18.063Z,13.57
2019-03-02T02:18:54.201Z,16.80
2019-03-02T02:21:31.492Z,16.67
2019-03-02T02:24:06.881Z,17.23
2019-03-02T02:26:50.209Z,14.70
2019-03-02T02:29:32.024Z,17.23
2019-03-02T02:32:13.367Z,15.47
2019-03-02T02:34:56.384Z,17.37
2019-03-02T02:37:37.053Z,16.87
2019-03-02T02:40:13.866Z,17.53
2019-03-02T02:42:48.883Z,17.93
2019-03-02T02:45:42.142Z,14.50
2019-03-02T02:48:17.170Z,15.00
2019-03-02T02:50:51.799Z,15.80
2019-03-02T02:53:26.536Z,15.77
2019-03-02T02:56:05.654Z,17.13
2019-03-02T02:58:55.576Z,16.67
2019-03-02T03:01:23.085Z,15.60
2019-03-02T03:04:01.043Z,17.23
2019-03-02T03:06:36.372Z,20.20
2019-03-02T03:09:18.181Z,19.57
2019-03-02T03:11:49.186Z,18.40
2019-03-02T03:14:26.226Z,20.43
2019-03-02T03:16:57.757Z,17.90
2019-03-02T03:19:30.943Z,21.07
2019-03-02T03:22:07.483Z,22.57
2019-03-02T03:24:40.614Z,16.87
2019-03-02T03:27:13.242Z,17.80
2019-03-02T03:29:49.438Z,23.80
2019-03-02T03:32:22.986Z,22.57
2019-03-02T03:34:53.856Z,19.57
2019-03-02T03:37:24.775Z,22.55
2019-03-02T03:39:56.997Z,23.10
2019-03-02T03:42:28.935Z,24.30
2019-03-02T03:45:06.451Z,27.33
2019-03-02T03:47:40.448Z,25.63
2019-03-02T03:50:18.392Z,21.10
2019-03-02T03:52:55.851Z,19.53
2019-03-02T03:55:36.698Z,28.77
2019-03-02T03:58:13.137Z,23.80
2019-03-02T04:00:49.536Z,22.33
2019-03-02T04:03:21.447Z,27.87
2019-03-02T04:06:09.735Z,35.60
2019-03-02T04:08:43.442Z,29.23
2019-03-02T04:11:14.420Z,35.20
2019-03-02T04:13:50.856Z,32.10
2019-03-02T04:16:25.196Z,34.70
2019-03-02T04:19:07.176Z,38.83
2019-03-02T04:21:47.297Z,40.87
2019-03-02T04:24:23.844Z,45.20
2019-03-02T04:27:15.266Z,31.43
2019-03-02T04:30:32.932Z,37.00
2019-03-02T04:33:11.251Z,38.03
2019-03-02T04:35:55.942Z,50.27
2019-03-02T04:38:52.720Z,45.80
2019-03-02T04:41:43.427Z,38.90
2019-03-02T04:45:14.417Z,41.37
2019-03-02T04:48:09.115Z,38.53
2019-03-02T04:50:48.526Z,36.10
2019-03-02T04:54:46.899Z,47.53
2019-03-02T04:57:23.618Z,45.20
2019-03-02T05:00:23.245Z,55.63
2019-03-02T05:02:57.385Z,39.90
2019-03-02T05:05:44.633Z,40.47
2019-03-02T05:08:28.402Z,42.20
2019-03-02T05:11:10.382Z,48.23
2019-03-02T05:13:41.459Z,39.97
2019-03-02T05:16:25.520Z,48.00
2019-03-02T05:19:38.899Z,45.70
2019-03-02T05:22:42.135Z,50.57
2019-03-02T05:25:51.647Z,45.60
2019-03-02T05:28:30.609Z,44.43
2019-03-02T05:31:09.406Z,54.17
2019-03-02T05:33:52.008Z,48.87
2019-03-02T05:36:28.168Z,50.37
2019-03-02T05:39:09.693Z,41.10
2019-03-02T05:41:44.990Z,51.27
2019-03-02T05:44:28.955Z,53.43
2019-03-02T05:47:15.271Z,54.07
2019-03-02T05:49:57.844Z,57.20
2019-03-02T05:52:36.617Z,49.60
2019-03-02T05:55:40.552Z,53.50
2019-03-02T05:58:19.585Z,57.60
2019-03-02T06:01:12.999Z,50.50
2019-03-02T06:04:06.033Z,50.45
2019-03-02T06:06:53.762Z,54.03
2019-03-02T06:09:29.963Z,59.67
2019-03-02T06:12:15.416Z,60.23
2019-03-02T06:15:00.243Z,58.75
2019-03-02T06:17:45.802Z,53.27
2019-03-02T06:20:26.220Z,56.50
2019-03-02T06:23:05.179Z,59.10
2019-03-02T06:25:47.899Z,53.63
2019-03-02T06:28:32.599Z,54.63
2019-03-02T06:31:41.199Z,61.70
2019-03-02T06:34:45.049Z,57.27
2019-03-02T06:37:25.515Z,55.90
2019-03-02T06:40:23.669Z,55.27
2019-03-02T06:43:21.500Z,71.90
2019-03-02T06:46:15.673Z,66.70
2019-03-02T06:49:16.734Z,76.60
2019-03-02T06:52:25.155Z,82.73
2019-03-02T06:55:11.518Z,71.30
2019-03-02T06:58:15.703Z,79.53
2019-03-02T07:01:39.585Z,61.27
2019-03-02T07:04:13.080Z,67.13
2019-03-02T07:07:27.516Z,72.97
2019-03-02T07:10:05.328Z,60.73
2019-03-02T07:12:52.659Z,71.40
2019-03-02T07:19:24.016Z,78.40
2019-03-02T07:22:33.345Z,78.62
2019-03-02T07:25:22.921Z,85.60
2019-03-02T07:28:11.606Z,73.20
2019-03-02T07:32:08.381Z,73.20
2019-03-02T07:34:50.639Z,82.37
2019-03-02T07:41:54.356Z,79.13
2019-03-02T07:48:47.519Z,88.17
2019-03-02T07:58:45.706Z,79.93
2019-03-02T08:01:35.542Z,93.50
2019-03-02T08:05:03.455Z,95.77
2019-03-02T08:11:45.473Z,108.12
2019-03-02T08:14:35.711Z,110.17
2019-03-02T08:17:53.912Z,98.83
2019-03-02T08:20:32.376Z,100.60
2019-03-02T08:23:20.162Z,87.30
2019-03-02T08:26:16.112Z,85.77
2019-03-02T08:30:39.365Z,99.77
2019-03-02T08:31:42.044Z,81.93
2019-03-02T08:34:55.023Z,85.73
2019-03-02T08:45:20.705Z,88.20
2019-03-02T08:51:29.194Z,76.23
2019-03-02T08:54:27.634Z,69.42
2019-03-02T09:01:03.435Z,68.67
2019-03-02T09:07:20.456Z,70.37
2019-03-02T09:11:12.111Z,62.50
2019-03-02T09:14:37.262Z,72.77
2019-03-02T09:17:36.913Z,69.17
2019-03-02T09:20:32.332Z,71.83
2019-03-02T09:23:28.562Z,64.27
2019-03-02T09:26:36.290Z,61.90
2019-03-02T09:29:44.976Z,69.13
2019-03-02T09:32:57.738Z,58.90
2019-03-02T09:36:04.385Z,62.43
2019-03-02T09:38:57.400Z,65.80
2019-03-02T09:41:33.617Z,66.80
2019-03-02T09:44:32.818Z,57.60
2019-03-02T09:50:56.430Z,66.57
2019-03-02T09:53:52.384Z,58.00
2019-03-02T09:56:51.552Z,61.67
2019-03-02T09:59:50.722Z,59.67
2019-03-02T10:02:54.271Z,57.13
2019-03-02T10:06:17.455Z,65.05
2019-03-02T10:13:50.148Z,61.07
2019-03-02T10:25:43.378Z,57.70
2019-03-02T10:32:46.212Z,56.57
2019-03-02T10:36:19.925Z,54.27
2019-03-02T10:47:37.965Z,53.35
2019-03-02T10:50:56.027Z,53.20
2019-03-02T10:54:18.346Z,54.17
2019-03-02T10:57:54.832Z,44.07
2019-03-02T11:01:21.104Z,49.33
2019-03-02T11:09:04.001Z,54.50
2019-03-02T11:12:45.766Z,47.93
2019-03-02T11:15:43.557Z,45.80
2019-03-02T11:22:38.320Z,49.57
2019-03-02T11:49:42.477Z,45.90
2019-03-02T11:53:04.610Z,43.53
2019-03-02T11:56:26.605Z,33.80
2019-03-02T11:59:41.997Z,35.17
2019-03-02T12:03:02.645Z,40.60
2019-03-02T12:10:05.316Z,38.75
2019-03-02T12:21:07.021Z,42.83
2019-03-02T12:24:44.148Z,32.80
2019-03-02T12:32:07.385Z,37.87
2019-03-02T12:35:14.651Z,29.67
2019-03-02T12:38:07.310Z,32.60
2019-03-02T12:41:12.114Z,35.00
2019-03-02T12:44:10.663Z,32.17
2019-03-02T12:58:49.220Z,28.40
2019-03-02T13:02:40.040Z,27.70
2019-03-02T13:05:57.476Z,35.10
2019-03-02T13:09:50.248Z,42.53
2019-03-02T13:13:40.072Z,32.73
2019-03-02T13:42:46.873Z,41.00
2019-03-02T14:09:20.182Z,33.47
2019-03-02T14:35:44.639Z,18.60
2019-03-02T15:21:19.103Z,18.45
2019-03-02T15:24:56.198Z,20.00
2019-03-02T15:28:39.118Z,13.72
2019-03-02T15:32:27.231Z,15.13
2019-03-02T15:47:32.268Z,20.73
2019-03-02T16:02:32.695Z,24.92
2019-03-02T16:14:05.554Z,31.77
2019-03-02T16:17:41.261Z,17.53
2019-03-02T16:21:01.789Z,27.00
2019-03-02T16:32:51.866Z,29.30
2019-03-02T16:36:44.955Z,24.30
2019-03-02T17:12:23.500Z,25.17
2019-03-02T17:15:47.998Z,23.93
2019-03-02T17:27:24.624Z,22.50
2019-03-02T17:35:03.214Z,19.73
2019-03-02T18:02:09.864Z,30.93
2019-03-02T18:25:28.325Z,17.90
2019-03-02T18:29:15.398Z,15.77
2019-03-02T18:58:24.100Z,16.10
2019-03-02T19:09:54.437Z,15.17
2019-03-02T19:21:42.213Z,13.27
2019-03-02T19:27:55.945Z,16.13
2019-03-02T19:39:01.219Z,17.47
2019-03-02T19:43:00.907Z,13.83
2019-03-02T20:01:02.798Z,13.40
2019-03-02T20:04:48.182Z,12.77
2019-03-02T20:07:47.702Z,14.57
2019-03-02T20:32:16.706Z,14.53
2019-03-02T20:35:30.276Z,15.10
2019-03-02T20:41:37.513Z,11.37
2019-03-02T20:48:03.069Z,13.87
2019-03-02T20:51:27.849Z,13.63
2019-03-02T20:57:52.045Z,9.33
2019-03-02T21:00:40.864Z,11.73
2019-03-02T21:11:17.295Z,7.93
2019-03-02T21:14:19.219Z,11.27
2019-03-02T21:17:18.040Z,9.33
2019-03-02T21:20:37.235Z,12.10
2019-03-02T21:27:37.912Z,9.13
2019-03-02T21:30:43.149Z,6.83
2019-03-02T21:34:06.256Z,6.50
2019-03-02T21:37:38.282Z,12.50
2019-03-02T21:44:04.022Z,9.93
2019-03-02T21:50:50.420Z,7.70
2019-03-02T21:57:02.134Z,5.93
2019-03-02T21:59:35.865Z,14.27
2019-03-02T22:02:30.829Z,10.80
2019-03-02T22:09:19.378Z,10.43
2019-03-02T22:12:27.574Z,12.68
2019-03-02T22:15:25.442Z,8.10
2019-03-02T22:21:49.251Z,9.80
2019-03-02T22:24:54.361Z,8.23
2019-03-02T22:27:40.068Z,12.40
2019-03-02T22:30:36.348Z,9.10
2019-03-02T22:33:32.492Z,10.97
2019-03-02T22:36:25.876Z,15.08
2019-03-02T22:39:27.006Z,16.17
2019-03-02T22:42:24.173Z,10.23
2019-03-02T22:45:42.120Z,21.47
2019-03-02T22:48:45.372Z,14.18
2019-03-02T22:51:29.258Z,11.57
2019-03-02T23:04:53.357Z,21.10
2019-03-02T23:07:34.364Z,12.20
2019-03-02T23:10:28.640Z,16.10
2019-03-02T23:14:11.215Z,16.35
2019-03-02T23:16:49.533Z,18.93
2019-03-02T23:19:44.341Z,16.50
2019-03-02T23:22:54.513Z,15.53
2019-03-02T23:26:13.187Z,16.30
2019-03-02T23:29:09.587Z,16.00
2019-03-02T23:31:54.570Z,16.30
2019-03-02T23:34:44.619Z,15.10
2019-03-02T23:37:20.888Z,11.83
2019-03-02T23:39:53.682Z,17.50
2019-03-02T23:42:59.192Z,20.07
2019-03-02T23:45:47.987Z,9.83
2019-03-02T23:52:50.104Z,14.23
2019-03-02T23:58:59.257Z,10.10
